Time;durP1;ratioP1;P1;durP2;ratioP2;P2;SDS_P1;SDS_P2;PMS_P1;PMS_P2;Temp;Humidity;BMP_temperature;BMP_pressure;BME280_temperature;BME280_humidity;BME280_pressure;Samples;Min_cycle;Max_cycle;Signal;HPM_P1;HPM_P2
2023/06/30 00:01:19;;;;;;;5.10;4.63;;;;;;;;;;5033610;28;20091;-61
2023/06/30 00:03:45;;;;;;;6.75;5.25;;;;;;;;;;5033565;28;20038;-64
2023/06/30 00:06:10;;;;;;;4.97;4.60;;;;;;;;;;5033643;28;20126;-61
2023/06/30 00:08:36;;;;;;;6.22;5.53;;;;;;;;;;5032239;28;20034;-61
2023/06/30 00:11:01;;;;;;;9.65;6.22;;;;;;;;;;5033339;28;20091;-61
2023/06/30 00:13:27;;;;;;;9.10;6.30;;;;;;;;;;5033597;28;20028;-61
2023/06/30 00:15:54;;;;;;;8.27;5.90;;;;;;;;;;5033327;28;20025;-61
2023/06/30 00:18:19;;;;;;;7.00;5.63;;;;;;;;;;5032321;28;20434;-62
2023/06/30 00:20:45;;;;;;;6.95;6.22;;;;;;;;;;5033459;28;20104;-61
2023/06/30 00:23:13;;;;;;;7.00;5.85;;;;;;;;;;5033335;28;20527;-61
2023/06/30 00:25:38;;;;;;;6.32;5.47;;;;;;;;;;5032258;28;20029;-61
2023/06/30 00:28:04;;;;;;;6.75;4.72;;;;;;;;;;5033347;28;20097;-61
2023/06/30 00:30:31;;;;;;;7.15;4.97;;;;;;;;;;5031929;28;20034;-62
2023/06/30 00:32:58;;;;;;;5.35;4.68;;;;;;;;;;5031631;28;20086;-61
2023/06/30 00:35:23;;;;;;;7.88;4.97;;;;;;;;;;5031705;28;20032;-61
2023/06/30 00:37:49;;;;;;;6.50;5.32;;;;;;;;;;5032792;28;20022;-61
2023/06/30 00:40:16;;;;;;;7.97;5.80;;;;;;;;;;5031661;28;20091;-63
2023/06/30 00:42:41;;;;;;;7.00;5.13;;;;;;;;;;5032778;28;20033;-64
2023/06/30 00:45:07;;;;;;;7.40;5.72;;;;;;;;;;5032939;28;20034;-64
2023/06/30 00:47:32;;;;;;;7.93;5.50;;;;;;;;;;5035619;28;20484;-64
2023/06/30 00:49:58;;;;;;;8.27;4.85;;;;;;;;;;5036586;28;20099;-65
2023/06/30 00:52:24;;;;;;;5.43;4.00;;;;;;;;;;5035498;28;20088;-65
2023/06/30 00:54:51;;;;;;;5.72;4.90;;;;;;;;;;5036453;28;20492;-65
2023/06/30 00:57:16;;;;;;;6.38;4.43;;;;;;;;;;5035086;28;20034;-64
2023/06/30 00:59:42;;;;;;;6.70;4.65;;;;;;;;;;5035214;28;20033;-62
2023/06/30 01:02:12;;;;;;;7.90;5.15;;;;;;;;;;5035336;28;20030;-61
2023/06/30 01:04:41;;;;;;;6.07;5.47;;;;;;;;;;5035095;28;20424;-62
2023/06/30 01:07:17;;;;;;;5.80;4.97;;;;;;;;;;5036468;28;20100;-64
2023/06/30 01:09:48;;;;;;;5.70;5.10;;;;;;;;;;5035217;28;20412;-66
2023/06/30 01:12:14;;;;;;;6.03;4.68;;;;;;;;;;5036421;28;20025;-61
2023/06/30 01:14:40;;;;;;;7.80;4.55;;;;;;;;;;5035063;28;20067;-63
2023/06/30 01:17:06;;;;;;;6.20;4.50;;;;;;;;;;5036289;28;20398;-63
2023/06/30 01:19:35;;;;;;;5.07;4.63;;;;;;;;;;5036131;28;20026;-62
2023/06/30 01:22:03;;;;;;;4.80;4.40;;;;;;;;;;5036049;28;20087;-62
2023/06/30 01:24:34;;;;;;;5.88;4.47;;;;;;;;;;5035903;28;20429;-62
2023/06/30 01:27:00;;;;;;;6.13;4.93;;;;;;;;;;5034582;28;20029;-62
2023/06/30 01:29:26;;;;;;;7.70;4.45;;;;;;;;;;5036023;28;20037;-64
2023/06/30 01:31:51;;;;;;;6.60;5.10;;;;;;;;;;5035701;28;20033;-65
2023/06/30 01:34:17;;;;;;;6.18;4.47;;;;;;;;;;5034736;28;20475;-66
2023/06/30 01:36:42;;;;;;;4.93;4.47;;;;;;;;;;5034580;28;20034;-66
2023/06/30 01:39:08;;;;;;;4.35;3.97;;;;;;;;;;5034502;28;20119;-66
2023/06/30 01:41:33;;;;;;;6.38;3.75;;;;;;;;;;5035509;28;20038;-66
2023/06/30 01:43:59;;;;;;;5.38;3.92;;;;;;;;;;5035713;28;20057;-66
2023/06/30 01:46:25;;;;;;;4.72;4.22;;;;;;;;;;5034976;28;20038;-65
2023/06/30 01:48:50;;;;;;;5.22;4.15;;;;;;;;;;5034476;28;20023;-64
2023/06/30 01:51:24;;;;;;;5.80;3.80;;;;;;;;;;5035555;28;20045;-64
2023/06/30 01:53:49;;;;;;;6.00;4.70;;;;;;;;;;5034088;28;20025;-64
2023/06/30 01:56:15;;;;;;;4.32;4.00;;;;;;;;;;5035197;28;20041;-64
2023/06/30 01:58:40;;;;;;;4.75;4.10;;;;;;;;;;5035383;28;20057;-62
2023/06/30 02:01:06;;;;;;;5.97;4.07;;;;;;;;;;5034138;28;20044;-62
2023/06/30 02:03:31;;;;;;;5.57;4.55;;;;;;;;;;5034159;28;20520;-62
2023/06/30 02:05:57;;;;;;;4.63;3.83;;;;;;;;;;5034116;28;20393;-62
2023/06/30 02:08:22;;;;;;;5.55;4.15;;;;;;;;;;5034719;28;20037;-65
2023/06/30 02:10:48;;;;;;;4.95;4.32;;;;;;;;;;5033480;28;20033;-61
2023/06/30 02:13:13;;;;;;;6.78;4.97;;;;;;;;;;5033511;28;20037;-62
2023/06/30 02:15:38;;;;;;;4.88;4.47;;;;;;;;;;5033931;28;20466;-62
2023/06/30 02:18:04;;;;;;;5.32;4.75;;;;;;;;;;5034899;28;20025;-61
2023/06/30 02:20:32;;;;;;;4.90;4.50;;;;;;;;;;5034777;28;20052;-61
2023/06/30 02:22:58;;;;;;;4.82;4.32;;;;;;;;;;5033790;28;20029;-61
2023/06/30 02:25:23;;;;;;;5.70;4.50;;;;;;;;;;5033998;28;20031;-62
2023/06/30 02:27:52;;;;;;;5.80;4.20;;;;;;;;;;5033621;28;20072;-62
2023/06/30 02:30:17;;;;;;;4.38;3.90;;;;;;;;;;5033545;28;20535;-62
2023/06/30 02:32:43;;;;;;;3.83;3.47;;;;;;;;;;5034712;28;20033;-61
2023/06/30 02:35:12;;;;;;;4.95;3.97;;;;;;;;;;5034554;28;20014;-62
2023/06/30 02:37:37;;;;;;;5.05;4.38;;;;;;;;;;5034204;28;20025;-62
2023/06/30 02:40:04;;;;;;;6.32;4.97;;;;;;;;;;5034165;28;20025;-62
2023/06/30 02:42:31;;;;;;;5.05;4.57;;;;;;;;;;5033028;28;20469;-63
2023/06/30 02:44:57;;;;;;;5.70;4.80;;;;;;;;;;5016640;28;20021;-62
2023/06/30 02:47:23;;;;;;;7.32;4.78;;;;;;;;;;5033291;28;20071;-62
2023/06/30 02:49:48;;;;;;;4.72;4.28;;;;;;;;;;5032152;28;20021;-64
2023/06/30 02:52:13;;;;;;;9.23;4.07;;;;;;;;;;5032671;28;20099;-65
2023/06/30 02:54:39;;;;;;;7.20;4.30;;;;;;;;;;5033910;28;20033;-65
2023/06/30 02:57:05;;;;;;;4.85;3.97;;;;;;;;;;5032885;28;20029;-66
2023/06/30 02:59:30;;;;;;;5.45;4.35;;;;;;;;;;5032946;28;20025;-65
2023/06/30 03:01:56;;;;;;;5.80;4.20;;;;;;;;;;5033363;28;20354;-65
2023/06/30 03:04:21;;;;;;;5.97;4.68;;;;;;;;;;5034228;28;20109;-64
2023/06/30 03:06:48;;;;;;;7.82;4.72;;;;;;;;;;5032549;28;20026;-64
2023/06/30 03:09:14;;;;;;;7.35;4.50;;;;;;;;;;5032855;28;20381;-64
2023/06/30 03:11:41;;;;;;;8.00;5.00;;;;;;;;;;5032688;28;20059;-64
2023/06/30 03:14:07;;;;;;;5.13;4.53;;;;;;;;;;5032674;28;20491;-64
2023/06/30 03:16:40;;;;;;;6.63;3.70;;;;;;;;;;5017365;28;20079;-64
2023/06/30 03:19:06;;;;;;;6.35;4.35;;;;;;;;;;5032229;28;20470;-64
2023/06/30 03:21:31;;;;;;;6.57;4.00;;;;;;;;;;5032364;28;20044;-64
2023/06/30 03:23:56;;;;;;;6.15;3.92;;;;;;;;;;5032232;28;20025;-64
2023/06/30 03:26:23;;;;;;;7.05;4.25;;;;;;;;;;5032040;28;20485;-62
2023/06/30 03:28:48;;;;;;;9.07;4.75;;;;;;;;;;5032676;28;20022;-62
2023/06/30 03:31:14;;;;;;;6.75;4.70;;;;;;;;;;5032984;28;20048;-62
2023/06/30 03:33:40;;;;;;;4.50;4.10;;;;;;;;;;5016319;28;20064;-62
2023/06/30 03:36:06;;;;;;;5.78;4.55;;;;;;;;;;5033996;28;20105;-62
2023/06/30 03:38:31;;;;;;;6.28;4.47;;;;;;;;;;5033819;28;20044;-62
2023/06/30 03:40:57;;;;;;;4.97;4.07;;;;;;;;;;5033493;28;20488;-65
2023/06/30 03:43:25;;;;;;;6.20;3.92;;;;;;;;;;5032651;28;20107;-65
2023/06/30 03:45:52;;;;;;;8.52;4.78;;;;;;;;;;5032483;28;20104;-64
2023/06/30 03:48:20;;;;;;;5.13;4.68;;;;;;;;;;5034100;28;20052;-65
2023/06/30 03:50:48;;;;;;;7.80;5.00;;;;;;;;;;5033517;28;20017;-66
2023/06/30 03:53:13;;;;;;;5.70;4.05;;;;;;;;;;5033620;28;20480;-66
2023/06/30 03:55:38;;;;;;;7.05;5.30;;;;;;;;;;5032444;28;20112;-66
2023/06/30 03:58:04;;;;;;;5.25;4.65;;;;;;;;;;5033293;28;20108;-65
2023/06/30 04:00:31;;;;;;;5.45;4.95;;;;;;;;;;5033687;28;20033;-65
2023/06/30 04:02:56;;;;;;;4.18;3.85;;;;;;;;;;5033313;28;20504;-61
2023/06/30 04:05:22;;;;;;;5.32;4.32;;;;;;;;;;5033347;28;20052;-61
2023/06/30 04:07:47;;;;;;;6.45;4.38;;;;;;;;;;5032306;28;20124;-62
2023/06/30 04:10:15;;;;;;;7.82;3.90;;;;;;;;;;5031671;28;20029;-62
2023/06/30 04:12:41;;;;;;;5.80;4.70;;;;;;;;;;5032685;28;20025;-63
2023/06/30 04:15:13;;;;;;;7.03;5.50;;;;;;;;;;5033616;28;20372;-61
2023/06/30 04:17:38;;;;;;;5.72;5.22;;;;;;;;;;5033231;28;20520;-63
2023/06/30 04:20:08;;;;;;;7.75;5.70;;;;;;;;;;5034249;28;20017;-62
2023/06/30 04:22:35;;;;;;;7.50;5.55;;;;;;;;;;5036972;28;20397;-62
2023/06/30 04:25:00;;;;;;;6.65;5.22;;;;;;;;;;5037481;28;20373;-62
2023/06/30 04:27:25;;;;;;;9.32;6.18;;;;;;;;;;5037057;28;20033;-62
2023/06/30 04:29:51;;;;;;;6.93;5.60;;;;;;;;;;5036994;28;20034;-63
2023/06/30 04:32:16;;;;;;;6.70;5.40;;;;;;;;;;5036899;28;20384;-62
2023/06/30 04:34:41;;;;;;;6.43;5.03;;;;;;;;;;5036905;28;20013;-62
2023/06/30 04:37:07;;;;;;;8.57;5.50;;;;;;;;;;5036777;28;20026;-62
2023/06/30 04:39:33;;;;;;;6.78;5.18;;;;;;;;;;5037030;28;20021;-62
2023/06/30 04:41:59;;;;;;;7.13;5.53;;;;;;;;;;5036909;28;20057;-62
2023/06/30 04:44:24;;;;;;;8.65;6.00;;;;;;;;;;5035847;28;20064;-62
2023/06/30 04:46:50;;;;;;;7.05;5.97;;;;;;;;;;5036440;28;20033;-62
2023/06/30 04:49:15;;;;;;;9.35;6.18;;;;;;;;;;5035359;28;20108;-62
2023/06/30 04:51:40;;;;;;;9.23;6.13;;;;;;;;;;5036856;28;20048;-62
2023/06/30 04:54:06;;;;;;;11.32;6.93;;;;;;;;;;5035970;28;20040;-62
2023/06/30 04:56:31;;;;;;;11.82;7.38;;;;;;;;;;5036455;28;20040;-62
2023/06/30 04:58:57;;;;;;;10.43;6.40;;;;;;;;;;5035250;28;20045;-63
2023/06/30 05:01:22;;;;;;;13.23;7.60;;;;;;;;;;5036145;28;20091;-62
2023/06/30 05:03:47;;;;;;;13.25;7.35;;;;;;;;;;5035070;28;20027;-62
2023/06/30 05:06:13;;;;;;;14.00;7.47;;;;;;;;;;5018434;28;20032;-62
2023/06/30 05:08:38;;;;;;;9.80;6.68;;;;;;;;;;5036035;28;20026;-63
2023/06/30 05:11:04;;;;;;;10.98;6.40;;;;;;;;;;5035570;28;20026;-62
2023/06/30 05:13:30;;;;;;;8.60;5.80;;;;;;;;;;5042217;28;20025;-62
2023/06/30 05:15:56;;;;;;;8.55;5.60;;;;;;;;;;5034104;28;20035;-62
2023/06/30 05:18:21;;;;;;;7.97;5.70;;;;;;;;;;5032422;28;20029;-62
2023/06/30 05:20:46;;;;;;;10.27;6.10;;;;;;;;;;5033115;28;20033;-62
2023/06/30 05:23:12;;;;;;;12.18;6.70;;;;;;;;;;5033296;28;20507;-61
2023/06/30 05:25:38;;;;;;;10.50;6.40;;;;;;;;;;5033767;28;20443;-64
2023/06/30 05:28:03;;;;;;;11.68;6.45;;;;;;;;;;5033923;28;20468;-64
2023/06/30 05:30:29;;;;;;;11.23;7.00;;;;;;;;;;5032134;28;20037;-64
2023/06/30 05:32:55;;;;;;;8.77;6.32;;;;;;;;;;5033368;28;20060;-62
2023/06/30 05:35:20;;;;;;;10.38;7.40;;;;;;;;;;5033326;28;20029;-62
2023/06/30 05:37:46;;;;;;;12.60;6.85;;;;;;;;;;5033737;28;20029;-62
2023/06/30 05:40:12;;;;;;;9.75;6.57;;;;;;;;;;5031212;28;20642;-62
2023/06/30 05:42:37;;;;;;;10.35;6.75;;;;;;;;;;5031774;28;20034;-61
2023/06/30 05:45:02;;;;;;;10.82;7.10;;;;;;;;;;5034346;28;20470;-62
2023/06/30 05:47:28;;;;;;;9.75;6.18;;;;;;;;;;5034690;28;20028;-62
2023/06/30 05:49:53;;;;;;;12.02;6.57;;;;;;;;;;5035151;28;20029;-63
2023/06/30 05:52:21;;;;;;;7.10;5.88;;;;;;;;;;5033814;28;20044;-62
2023/06/30 05:54:46;;;;;;;7.70;5.13;;;;;;;;;;5034848;28;20045;-63
2023/06/30 05:57:12;;;;;;;8.20;5.75;;;;;;;;;;5035406;28;20037;-62
2023/06/30 05:59:37;;;;;;;6.22;5.63;;;;;;;;;;5035626;28;20048;-62
2023/06/30 06:02:03;;;;;;;5.65;4.70;;;;;;;;;;5033675;28;20042;-62
2023/06/30 06:04:28;;;;;;;5.53;4.53;;;;;;;;;;5033124;28;20026;-62
2023/06/30 06:06:54;;;;;;;7.80;4.72;;;;;;;;;;5033085;28;20037;-62
2023/06/30 06:09:19;;;;;;;7.85;5.15;;;;;;;;;;5033042;28;20030;-62
2023/06/30 06:11:44;;;;;;;7.78;5.47;;;;;;;;;;5033026;28;20030;-61
2023/06/30 06:14:10;;;;;;;7.68;4.78;;;;;;;;;;5033194;28;20033;-62
2023/06/30 06:16:35;;;;;;;6.03;4.72;;;;;;;;;;5033239;28;20033;-62
2023/06/30 06:19:00;;;;;;;6.75;4.82;;;;;;;;;;5033284;28;20548;-62
2023/06/30 06:21:29;;;;;;;4.63;4.22;;;;;;;;;;5033125;28;20116;-61
2023/06/30 06:23:54;;;;;;;4.75;3.92;;;;;;;;;;5043085;23;20061;-62
2023/06/30 06:26:20;;;;;;;4.85;3.85;;;;;;;;;;5034556;28;20026;-62
2023/06/30 06:28:45;;;;;;;5.00;4.15;;;;;;;;;;5034774;28;20064;-62
2023/06/30 06:31:12;;;;;;;4.72;4.05;;;;;;;;;;5034770;28;20033;-62
2023/06/30 06:33:45;;;;;;;4.75;4.28;;;;;;;;;;5039549;23;20037;-62
2023/06/30 06:36:11;;;;;;;4.53;4.13;;;;;;;;;;5032571;28;20636;-61
2023/06/30 06:38:37;;;;;;;4.10;3.80;;;;;;;;;;5034327;28;20100;-62
2023/06/30 06:41:02;;;;;;;3.53;3.22;;;;;;;;;;5034328;28;20494;-62
2023/06/30 06:43:27;;;;;;;4.38;3.10;;;;;;;;;;5049297;28;20025;-62
2023/06/30 06:45:53;;;;;;;3.72;3.17;;;;;;;;;;4999773;28;20392;-62
2023/06/30 06:48:20;;;;;;;3.50;3.20;;;;;;;;;;5032941;28;20029;-62
2023/06/30 06:50:46;;;;;;;3.28;3.08;;;;;;;;;;5034129;28;20033;-61
2023/06/30 06:53:15;;;;;;;6.13;3.28;;;;;;;;;;5033979;28;20041;-62
2023/06/30 06:55:40;;;;;;;4.75;3.42;;;;;;;;;;5034628;28;20029;-61
2023/06/30 06:58:05;;;;;;;4.05;3.10;;;;;;;;;;5034270;28;20567;-62
2023/06/30 07:00:31;;;;;;;6.45;2.95;;;;;;;;;;5034139;28;20029;-62
2023/06/30 07:02:56;;;;;;;4.00;3.28;;;;;;;;;;4999943;28;20080;-62
2023/06/30 07:05:21;;;;;;;4.28;3.20;;;;;;;;;;5033929;28;20024;-62
2023/06/30 07:07:47;;;;;;;4.38;3.35;;;;;;;;;;5033808;28;20484;-62
2023/06/30 07:10:12;;;;;;;3.85;3.13;;;;;;;;;;5032964;28;20112;-62
2023/06/30 07:12:39;;;;;;;5.78;3.58;;;;;;;;;;5034016;28;20033;-62
2023/06/30 07:15:05;;;;;;;6.53;3.40;;;;;;;;;;5034030;28;20044;-62
2023/06/30 07:17:30;;;;;;;5.40;3.22;;;;;;;;;;5034259;28;20033;-62
2023/06/30 07:19:55;;;;;;;3.90;3.17;;;;;;;;;;5048947;28;20064;-62
2023/06/30 07:22:21;;;;;;;4.28;3.30;;;;;;;;;;5033577;28;20026;-62
2023/06/30 07:24:46;;;;;;;5.10;3.28;;;;;;;;;;5033900;28;20052;-62
2023/06/30 07:27:13;;;;;;;5.20;3.25;;;;;;;;;;5034148;28;20038;-62
2023/06/30 07:29:38;;;;;;;4.70;3.50;;;;;;;;;;5033891;28;20056;-63
2023/06/30 07:32:04;;;;;;;4.43;3.25;;;;;;;;;;5033756;28;20068;-62
2023/06/30 07:34:31;;;;;;;3.40;3.20;;;;;;;;;;5033538;28;20038;-62
2023/06/30 07:36:56;;;;;;;3.50;3.20;;;;;;;;;;5033494;28;20056;-62
2023/06/30 07:39:21;;;;;;;4.20;3.60;;;;;;;;;;5033509;28;20489;-62
2023/06/30 07:41:48;;;;;;;4.25;3.72;;;;;;;;;;5033923;28;20044;-62
2023/06/30 07:44:13;;;;;;;4.65;3.15;;;;;;;;;;5033448;28;20047;-62
2023/06/30 07:46:38;;;;;;;4.40;3.67;;;;;;;;;;5049163;28;20456;-62
2023/06/30 07:49:04;;;;;;;7.57;4.75;;;;;;;;;;5033357;28;20036;-62
2023/06/30 07:51:29;;;;;;;3.92;3.45;;;;;;;;;;5033669;28;20076;-62
2023/06/30 07:53:55;;;;;;;7.03;3.80;;;;;;;;;;5017867;28;20049;-62
2023/06/30 07:56:20;;;;;;;4.90;4.13;;;;;;;;;;5037388;28;20037;-62
2023/06/30 07:58:47;;;;;;;5.50;3.75;;;;;;;;;;5037292;28;20042;-61
2023/06/30 08:01:12;;;;;;;4.25;3.70;;;;;;;;;;5037770;28;20033;-62
2023/06/30 08:03:37;;;;;;;4.70;3.30;;;;;;;;;;5037542;28;20017;-62
2023/06/30 08:06:03;;;;;;;3.78;3.47;;;;;;;;;;5037203;28;20068;-62
2023/06/30 08:08:29;;;;;;;3.75;3.38;;;;;;;;;;5037150;28;20033;-62
2023/06/30 08:10:55;;;;;;;6.35;4.53;;;;;;;;;;5036879;28;20087;-62
2023/06/30 08:13:20;;;;;;;8.15;4.30;;;;;;;;;;5048646;22;20046;-61
2023/06/30 08:15:45;;;;;;;5.78;4.60;;;;;;;;;;5056976;28;20038;-62
2023/06/30 08:18:11;;;;;;;4.80;3.72;;;;;;;;;;5057252;28;20037;-62
2023/06/30 08:20:36;;;;;;;3.65;3.33;;;;;;;;;;5056877;28;20028;-62
2023/06/30 08:23:02;;;;;;;5.93;3.72;;;;;;;;;;5057206;28;20033;-62
2023/06/30 08:25:28;;;;;;;5.13;4.50;;;;;;;;;;5056818;28;20029;-62
2023/06/30 08:27:54;;;;;;;6.70;4.10;;;;;;;;;;5057042;28;20029;-62
2023/06/30 08:30:20;;;;;;;6.75;4.20;;;;;;;;;;5057051;28;20071;-62
2023/06/30 08:32:45;;;;;;;10.73;4.53;;;;;;;;;;5056665;28;20063;-62
2023/06/30 08:35:10;;;;;;;6.78;3.92;;;;;;;;;;5056634;28;20474;-62
2023/06/30 08:37:37;;;;;;;4.82;3.95;;;;;;;;;;5056590;28;20025;-63
2023/06/30 08:40:02;;;;;;;5.68;3.42;;;;;;;;;;5055647;28;20025;-62
2023/06/30 08:42:28;;;;;;;4.32;2.75;;;;;;;;;;5055163;28;20598;-62
2023/06/30 08:44:54;;;;;;;3.55;3.25;;;;;;;;;;5059405;23;20053;-64
2023/06/30 08:47:24;;;;;;;6.13;3.50;;;;;;;;;;5035725;28;20040;-64
2023/06/30 08:49:49;;;;;;;4.50;3.25;;;;;;;;;;5036717;28;20096;-64
2023/06/30 08:52:15;;;;;;;4.45;3.33;;;;;;;;;;5036974;28;20064;-62
2023/06/30 08:54:40;;;;;;;3.83;2.97;;;;;;;;;;5036349;28;20052;-62
2023/06/30 08:57:06;;;;;;;3.88;2.95;;;;;;;;;;5036307;28;20030;-62
2023/06/30 08:59:31;;;;;;;4.00;2.63;;;;;;;;;;5036798;28;20075;-61
2023/06/30 09:01:58;;;;;;;4.93;3.03;;;;;;;;;;5036156;28;20393;-62
2023/06/30 09:04:23;;;;;;;6.55;3.10;;;;;;;;;;5035050;28;20029;-62
2023/06/30 09:06:49;;;;;;;4.22;3.25;;;;;;;;;;5036263;28;20037;-62
2023/06/30 09:09:21;;;;;;;5.60;3.13;;;;;;;;;;5036044;28;20030;-62
2023/06/30 09:11:47;;;;;;;2.60;2.40;;;;;;;;;;5034786;28;20037;-62
2023/06/30 09:14:13;;;;;;;3.08;2.50;;;;;;;;;;5034697;28;20033;-62
2023/06/30 09:16:38;;;;;;;3.90;3.10;;;;;;;;;;5034648;28;20496;-62
2023/06/30 09:19:04;;;;;;;3.78;2.65;;;;;;;;;;5035868;28;20033;-62
2023/06/30 09:21:29;;;;;;;5.05;2.65;;;;;;;;;;5036028;28;20029;-62
2023/06/30 09:23:55;;;;;;;4.40;2.90;;;;;;;;;;5035760;28;20080;-62
2023/06/30 09:26:20;;;;;;;4.20;3.13;;;;;;;;;;5035751;28;20438;-62
2023/06/30 09:28:45;;;;;;;3.35;2.75;;;;;;;;;;5035748;28;20469;-62
2023/06/30 09:31:11;;;;;;;3.55;2.47;;;;;;;;;;5035680;28;20393;-62
2023/06/30 09:33:37;;;;;;;2.58;2.35;;;;;;;;;;5035571;28;20038;-62
2023/06/30 09:36:05;;;;;;;6.38;2.20;;;;;;;;;;5035559;28;20048;-62
2023/06/30 09:38:31;;;;;;;2.20;2.10;;;;;;;;;;5035499;28;20025;-62
2023/06/30 09:40:56;;;;;;;5.45;2.08;;;;;;;;;;5035402;28;20465;-62
2023/06/30 09:43:23;;;;;;;2.30;2.10;;;;;;;;;;5035717;28;20453;-62
2023/06/30 09:45:59;;;;;;;2.30;2.10;;;;;;;;;;5035334;28;20037;-61
2023/06/30 09:48:31;;;;;;;3.15;2.10;;;;;;;;;;5034728;28;20104;-62
2023/06/30 09:50:57;;;;;;;2.50;1.75;;;;;;;;;;5034360;28;20037;-62
2023/06/30 09:53:22;;;;;;;2.30;1.83;;;;;;;;;;5035201;28;20021;-62
2023/06/30 09:55:49;;;;;;;3.53;1.80;;;;;;;;;;5033978;28;20056;-62
2023/06/30 09:58:15;;;;;;;3.70;1.80;;;;;;;;;;5035393;28;20028;-62
2023/06/30 10:00:41;;;;;;;2.22;1.98;;;;;;;;;;5035003;28;20048;-62
2023/06/30 10:03:06;;;;;;;2.53;2.25;;;;;;;;;;5034433;28;20017;-62
2023/06/30 10:05:32;;;;;;;2.53;2.33;;;;;;;;;;5035555;28;20021;-62
2023/06/30 10:08:00;;;;;;;2.33;2.13;;;;;;;;;;5034994;28;20084;-62
2023/06/30 10:10:27;;;;;;;1.90;1.80;;;;;;;;;;5035167;28;20029;-62
2023/06/30 10:12:53;;;;;;;4.28;1.80;;;;;;;;;;5033985;28;20121;-62
2023/06/30 10:15:18;;;;;;;4.20;2.13;;;;;;;;;;5050211;28;20160;-62
2023/06/30 10:17:45;;;;;;;3.50;2.17;;;;;;;;;;5035031;28;20034;-63
2023/06/30 10:20:10;;;;;;;3.08;1.98;;;;;;;;;;5034060;28;20025;-62
2023/06/30 10:22:37;;;;;;;2.65;2.28;;;;;;;;;;5034640;28;20527;-62
2023/06/30 10:25:03;;;;;;;3.30;2.38;;;;;;;;;;5034938;28;20471;-62
2023/06/30 10:27:29;;;;;;;4.78;2.20;;;;;;;;;;5033567;28;20033;-62
2023/06/30 10:29:54;;;;;;;1.95;1.70;;;;;;;;;;5034575;28;20484;-62
2023/06/30 10:32:20;;;;;;;2.45;2.20;;;;;;;;;;5033261;28;20037;-61
2023/06/30 10:34:49;;;;;;;2.83;2.08;;;;;;;;;;5034475;28;20038;-62
2023/06/30 10:37:14;;;;;;;2.30;2.20;;;;;;;;;;5033129;28;20102;-62
2023/06/30 10:39:40;;;;;;;2.05;1.85;;;;;;;;;;5034665;28;20512;-62
2023/06/30 10:42:06;;;;;;;2.50;1.70;;;;;;;;;;5033391;28;20477;-62
2023/06/30 10:44:52;;;;;;;2.97;2.40;;;;;;;;;;5033060;28;20522;-62
2023/06/30 10:47:22;;;;;;;5.07;2.28;;;;;;;;;;5032491;28;20048;-62
2023/06/30 10:49:51;;;;;;;;;;;;;;;;;;5034013;28;20026;-62
2023/06/30 10:55:47;;;;;;;4.30;2.47;;;;;;;;;;5088243;23;20059;-64
2023/06/30 10:58:26;;;;;;;2.40;2.20;;;;;;;;;;5094747;28;20270;-64
2023/06/30 11:01:09;;;;;;;6.13;1.80;;;;;;;;;;5076274;28;20538;-64
2023/06/30 11:03:53;;;;;;;2.63;2.42;;;;;;;;;;5094378;28;20076;-64
2023/06/30 11:06:25;;;;;;;4.50;2.60;;;;;;;;;;5087166;23;20057;-62
2023/06/30 11:09:00;;;;;;;2.47;2.30;;;;;;;;;;5051640;28;20041;-62
2023/06/30 11:11:29;;;;;;;2.47;2.28;;;;;;;;;;5054043;28;20033;-62
2023/06/30 11:14:06;;;;;;;4.82;2.97;;;;;;;;;;5054021;28;20079;-62
2023/06/30 11:16:57;;;;;;;4.90;2.95;;;;;;;;;;5071936;23;20053;-62
2023/06/30 11:19:24;;;;;;;4.55;3.03;;;;;;;;;;5088489;23;20491;-62
2023/06/30 11:22:09;;;;;;;4.32;2.38;;;;;;;;;;5093762;28;20040;-61
2023/06/30 11:24:34;;;;;;;2.78;2.67;;;;;;;;;;5093895;28;20456;-62
2023/06/30 11:27:00;;;;;;;3.55;2.55;;;;;;;;;;5093738;28;20038;-62
2023/06/30 11:29:25;;;;;;;4.32;2.83;;;;;;;;;;5093320;28;20127;-62
2023/06/30 11:31:51;;;;;;;3.17;2.67;;;;;;;;;;5093748;28;20020;-62
2023/06/30 11:34:17;;;;;;;3.78;2.53;;;;;;;;;;5093705;28;20464;-62
2023/06/30 11:36:47;;;;;;;3.67;2.40;;;;;;;;;;5075744;28;20544;-62
2023/06/30 11:39:13;;;;;;;4.57;2.70;;;;;;;;;;5094244;28;20039;-62
2023/06/30 11:41:39;;;;;;;4.60;2.38;;;;;;;;;;5075467;28;20166;-62
2023/06/30 11:44:04;;;;;;;2.58;2.38;;;;;;;;;;5093647;28;20056;-62
2023/06/30 11:46:35;;;;;;;3.00;2.67;;;;;;;;;;5075882;28;20024;-62
2023/06/30 11:49:01;;;;;;;3.92;2.80;;;;;;;;;;5093576;28;20024;-62
2023/06/30 11:51:26;;;;;;;4.47;2.50;;;;;;;;;;5093840;28;20380;-62
2023/06/30 11:53:51;;;;;;;4.70;2.15;;;;;;;;;;5093506;28;20364;-62
2023/06/30 11:56:17;;;;;;;4.53;2.38;;;;;;;;;;5093758;28;20028;-62
2023/06/30 11:58:47;;;;;;;3.05;2.05;;;;;;;;;;5058646;28;20494;-62
2023/06/30 12:01:12;;;;;;;2.28;2.10;;;;;;;;;;5093352;28;20073;-62
2023/06/30 12:03:37;;;;;;;4.20;2.17;;;;;;;;;;5093449;28;20008;-62
2023/06/30 12:06:04;;;;;;;1.90;1.80;;;;;;;;;;5094256;28;20028;-62
2023/06/30 12:08:30;;;;;;;3.33;2.25;;;;;;;;;;5075994;28;20064;-61
2023/06/30 12:10:56;;;;;;;2.13;2.03;;;;;;;;;;5093310;28;20502;-62
2023/06/30 12:13:27;;;;;;;3.33;2.17;;;;;;;;;;5093626;28;20115;-62
2023/06/30 12:15:56;;;;;;;3.90;2.28;;;;;;;;;;5093880;28;20031;-62
2023/06/30 12:18:38;;;;;;;3.15;2.17;;;;;;;;;;5080758;28;20424;-62
2023/06/30 12:21:11;;;;;;;1.98;1.88;;;;;;;;;;5113810;28;20074;-62
2023/06/30 12:23:40;;;;;;;2.25;2.03;;;;;;;;;;5113861;28;20026;-62
2023/06/30 12:26:06;;;;;;;3.58;2.15;;;;;;;;;;5113597;28;20089;-62
2023/06/30 12:28:31;;;;;;;2.20;2.03;;;;;;;;;;5113816;28;20028;-62
2023/06/30 12:30:56;;;;;;;3.45;2.33;;;;;;;;;;5113516;28;20519;-62
2023/06/30 12:33:22;;;;;;;2.45;2.35;;;;;;;;;;5095666;28;20031;-62
2023/06/30 12:35:49;;;;;;;3.88;2.20;;;;;;;;;;5113445;28;20024;-61
2023/06/30 12:38:14;;;;;;;3.33;2.05;;;;;;;;;;5113734;28;20031;-62
2023/06/30 12:40:39;;;;;;;2.58;2.30;;;;;;;;;;5115194;28;20047;-62
2023/06/30 12:43:05;;;;;;;4.38;2.85;;;;;;;;;;5099616;28;20090;-61
2023/06/30 12:45:30;;;;;;;3.70;2.47;;;;;;;;;;5117108;28;20526;-61
2023/06/30 12:47:55;;;;;;;3.53;2.50;;;;;;;;;;5117090;28;20114;-61
2023/06/30 12:50:21;;;;;;;6.25;2.60;;;;;;;;;;5117551;28;20024;-61
2023/06/30 12:52:46;;;;;;;5.07;2.65;;;;;;;;;;5098960;28;20081;-61
2023/06/30 12:55:12;;;;;;;5.32;2.70;;;;;;;;;;5117225;28;20111;-61
2023/06/30 12:57:38;;;;;;;3.85;2.55;;;;;;;;;;5117156;28;20027;-61
2023/06/30 13:00:09;;;;;;;2.50;2.30;;;;;;;;;;5117138;28;20036;-62
2023/06/30 13:02:34;;;;;;;6.57;2.53;;;;;;;;;;5116958;28;20032;-62
2023/06/30 13:04:59;;;;;;;4.10;2.60;;;;;;;;;;5116718;28;20169;-62
2023/06/30 13:07:26;;;;;;;3.15;2.63;;;;;;;;;;5116148;28;20106;-62
2023/06/30 13:09:52;;;;;;;3.88;2.60;;;;;;;;;;5116355;28;20035;-61
2023/06/30 13:12:25;;;;;;;3.13;2.47;;;;;;;;;;5098354;28;20019;-61
2023/06/30 13:14:51;;;;;;;3.30;2.78;;;;;;;;;;5116346;28;20068;-61
2023/06/30 13:17:16;;;;;;;2.72;2.60;;;;;;;;;;5116096;28;20104;-61
2023/06/30 13:19:41;;;;;;;2.85;2.55;;;;;;;;;;5116100;28;20040;-61
2023/06/30 13:22:08;;;;;;;2.40;2.20;;;;;;;;;;5087135;28;20410;-61
2023/06/30 13:24:33;;;;;;;5.20;2.40;;;;;;;;;;5087397;28;20020;-62
2023/06/30 13:26:59;;;;;;;4.10;2.47;;;;;;;;;;5068982;28;20525;-62
2023/06/30 13:29:25;;;;;;;3.17;2.40;;;;;;;;;;5106053;28;20026;-63
2023/06/30 13:31:50;;;;;;;4.10;2.95;;;;;;;;;;5105335;28;20031;-62
2023/06/30 13:34:16;;;;;;;2.58;2.10;;;;;;;;;;5115587;28;20031;-64
2023/06/30 13:36:41;;;;;;;2.50;2.30;;;;;;;;;;5115303;28;20019;-62
2023/06/30 13:39:07;;;;;;;2.30;2.10;;;;;;;;;;5097595;28;20035;-63
2023/06/30 13:41:32;;;;;;;2.75;2.55;;;;;;;;;;5102278;28;20028;-63
2023/06/30 13:43:58;;;;;;;3.67;2.40;;;;;;;;;;5095302;28;20078;-63
2023/06/30 13:46:24;;;;;;;4.90;2.42;;;;;;;;;;5095235;28;20043;-63
2023/06/30 13:48:49;;;;;;;3.25;2.30;;;;;;;;;;5094150;28;20035;-63
2023/06/30 13:51:15;;;;;;;2.83;2.00;;;;;;;;;;5092561;28;20036;-63
2023/06/30 13:53:41;;;;;;;2.65;2.25;;;;;;;;;;5094571;28;20154;-64
2023/06/30 13:56:07;;;;;;;2.63;2.42;;;;;;;;;;5094582;28;20057;-64
2023/06/30 13:58:32;;;;;;;3.20;2.47;;;;;;;;;;5094415;28;20032;-64
2023/06/30 14:00:57;;;;;;;3.22;2.22;;;;;;;;;;5098799;28;20038;-64
2023/06/30 14:03:22;;;;;;;4.68;2.08;;;;;;;;;;5109219;28;20462;-64
2023/06/30 14:05:49;;;;;;;3.60;2.22;;;;;;;;;;5103271;28;20027;-63
2023/06/30 14:08:15;;;;;;;2.40;2.20;;;;;;;;;;5091800;28;20047;-64
2023/06/30 14:10:40;;;;;;;3.58;2.05;;;;;;;;;;5109391;28;20048;-61
2023/06/30 14:13:06;;;;;;;2.50;2.40;;;;;;;;;;5066189;28;20377;-61
2023/06/30 14:15:31;;;;;;;2.40;2.10;;;;;;;;;;5094080;28;20452;-62
2023/06/30 14:17:56;;;;;;;2.20;2.00;;;;;;;;;;5094464;28;20062;-60
2023/06/30 14:20:22;;;;;;;3.40;1.85;;;;;;;;;;5076148;28;20463;-59
2023/06/30 14:22:48;;;;;;;1.98;1.88;;;;;;;;;;5094280;28;20042;-60
2023/06/30 14:25:18;;;;;;;3.90;2.25;;;;;;;;;;5076170;28;20110;-60
2023/06/30 14:27:43;;;;;;;2.75;2.03;;;;;;;;;;5094554;28;20410;-60
2023/06/30 14:30:09;;;;;;;2.38;2.10;;;;;;;;;;5094330;28;20032;-63
2023/06/30 14:32:35;;;;;;;2.78;2.20;;;;;;;;;;5094670;28;20027;-63
2023/06/30 14:35:03;;;;;;;3.25;2.35;;;;;;;;;;5094345;28;20085;-63
2023/06/30 14:37:28;;;;;;;2.60;2.33;;;;;;;;;;5059371;28;20024;-63
2023/06/30 14:39:55;;;;;;;3.17;2.40;;;;;;;;;;5094264;28;20024;-63
2023/06/30 14:42:20;;;;;;;3.13;2.03;;;;;;;;;;5094047;28;20028;-63